Flight Track Log - Related Links

Times and Time Zones

All times are in EDT time to prevent confusion due to time zone crossing. See the DAL511 flight status page for this flight to view local times or setup timezone preferences in your user account.

Time Position Orientation Groundspeed Altitude Reporting Facility
EDT Latitude Longitude Course Direction KTS MPH feet Rate Location/Type
Fri 09:41:00 AM 19.5372 -99.0081 31° Northeast  Level FlightAware Approximate
Fri 09:42:00 AM 19.6329 -98.9725 32° Northeast  Level FlightAware Approximate
Fri 09:43:00 AM 19.7408 -98.9253 17° North  Level FlightAware Approximate
Fri 09:44:00 AM 19.8518 -98.8844 23° Northeast  Level FlightAware Approximate
Fri 09:45:00 AM 19.9602 -98.8362 23° Northeast  Level FlightAware Approximate
Fri 09:46:00 AM 20.0693 -98.7904 25° Northeast  Level FlightAware Approximate
Fri 09:47:00 AM 20.1777 -98.7431 13° North  Level FlightAware Approximate
Fri 09:48:00 AM 20.2882 -98.7016 23° Northeast  Level FlightAware Approximate
Fri 09:49:00 AM 20.3970 -98.6541 21° North  Level FlightAware Approximate
Fri 09:50:00 AM 20.5065 -98.6084 21° North  Level FlightAware Approximate
Fri 09:51:00 AM 20.6162 -98.5635 21° North  Level FlightAware Approximate
Fri 09:52:00 AM 20.7252 -98.5166 23° Northeast  Level FlightAware Approximate
Fri 09:53:00 AM 20.8343 -98.4696 20° North  Level FlightAware Approximate
Fri 09:54:00 AM 20.9435 -98.4233 23° Northeast  Level FlightAware Approximate
Fri 09:55:00 AM 21.0521 -98.3751 22° Northeast  Level FlightAware Approximate
Fri 09:56:00 AM 21.1610 -98.3275 22° Northeast  Level FlightAware Approximate
Fri 09:57:00 AM 21.2698 -98.2799 22° Northeast  Level FlightAware Approximate
Fri 09:58:00 AM 21.3806 -98.2379 18° North  Level FlightAware Approximate
Fri 09:59:00 AM 21.4921 -98.1981 18° North  Level FlightAware Approximate
Fri 10:00:00 AM 21.6019 -98.1530 22° Northeast  Level FlightAware Approximate
Fri 10:01:00 AM 21.7106 -98.1049 22° Northeast  Level FlightAware Approximate
Fri 10:02:00 AM 21.8193 -98.0567 22° Northeast  Level FlightAware Approximate
Fri 10:03:00 AM 21.9280 -98.0084 22° Northeast  Level FlightAware Approximate
Fri 10:04:00 AM 22.0366 -97.9601 22° Northeast  Level FlightAware Approximate
Fri 10:05:00 AM 22.1453 -97.9116 22° Northeast  Level FlightAware Approximate
Fri 10:06:00 AM 22.2539 -97.8631 22° Northeast  Level FlightAware Approximate
Fri 10:07:00 AM 22.3687 -97.8420 North  Level FlightAware Approximate
Fri 10:08:00 AM 22.4858 -97.8310 North  Level FlightAware Approximate
Fri 10:09:00 AM 22.6029 -97.8200 North  Level FlightAware Approximate
Fri 10:10:00 AM 22.7201 -97.8089 North  Level FlightAware Approximate
Fri 10:11:00 AM 22.8372 -97.7979 North  Level FlightAware Approximate
Fri 10:12:00 AM 22.9543 -97.7868 North  Level FlightAware Approximate
Fri 10:13:00 AM 23.0714 -97.7757 North  Level FlightAware Approximate
Fri 10:14:00 AM 23.1885 -97.7646 North  Level FlightAware Approximate
Fri 10:15:00 AM 23.3056 -97.7536 North  Level FlightAware Approximate
Fri 10:16:00 AM 23.4227 -97.7425 North  Level FlightAware Approximate
Fri 10:17:00 AM 23.5398 -97.7314 North  Level FlightAware Approximate
Fri 10:18:00 AM 23.6569 -97.7203 North  Level FlightAware Approximate
Fri 10:19:00 AM 23.7740 -97.7092 North  Level FlightAware Approximate
Fri 10:20:00 AM 23.8911 -97.6980 North  Level FlightAware Approximate
Fri 10:21:00 AM 24.0082 -97.6869 North  Level FlightAware Approximate
Fri 10:22:00 AM 24.1253 -97.6757 North  Level FlightAware Approximate
Fri 10:23:00 AM 24.2424 -97.6645 North  Level FlightAware Approximate
Fri 10:24:00 AM 24.3595 -97.6532 North  Level FlightAware Approximate
Fri 10:25:00 AM 24.4766 -97.6420 North  Level FlightAware Approximate
Fri 10:26:00 AM 24.5937 -97.6307 North  Level FlightAware Approximate
Fri 10:27:00 AM 24.7108 -97.6194 North  Level FlightAware Approximate
Fri 10:28:00 AM 24.8279 -97.6081 North  Level FlightAware Approximate
Fri 10:29:00 AM 24.9450 -97.5968 North  Level FlightAware Approximate
Fri 10:30:00 AM 25.0621 -97.5854 North  Level FlightAware Approximate
Fri 10:31:00 AM 25.1792 -97.5741 North  Level FlightAware Approximate
Fri 10:32:00 AM 25.2963 -97.5627 North  Level FlightAware Approximate
Fri 10:33:00 AM 25.4109 -97.5515 North  Level FlightAware Approximate
Fri 10:34:00 AM 25.5255 -97.5403 North  Level FlightAware Approximate
Fri 10:35:00 AM 25.6401 -97.5291 North  Level FlightAware Approximate
Fri 10:36:00 AM 25.7547 -97.5178 North  Level FlightAware Approximate
Fri 10:37:00 AM 25.8432 -97.4401 42° Northeast  Level FlightAware Approximate
Fri 10:38:00 AM 25.9321 -97.3610 18° North  Level FlightAware Approximate
Fri 10:39:00 AM 26.0413 -97.3206 18° North  Level FlightAware Approximate
Fri 10:40:00 AM 26.1504 -97.2801 18° North  Level FlightAware Approximate
Fri 10:40:17 AM 25.4272 -97.3633 18° North 459 528 37,000  Level Houston Center
Fri 10:41:00 AM 26.2596 -97.2396 18° North  Level FlightAware Approximate
Fri 10:41:20 AM 25.5789 -97.3675 359° North 454 522 37,000  Level Houston Center
Fri 10:42:00 AM 26.3687 -97.1990 18° North  Level FlightAware Approximate
Fri 10:42:22 AM 25.7033 -97.3703 359° North 450 518 37,000  Level Houston Center
Fri 10:43:00 AM 26.4778 -97.1583 18° North  Level FlightAware Approximate
Fri 10:43:24 AM 25.8383 -97.3717 359° North 451 519 37,000  Level Houston Center
Fri 10:44:00 AM 26.5870 -97.1176 18° North  Level FlightAware Approximate
Fri 10:44:26 AM 25.9536 -97.3119 25° Northeast 460 529 37,000  Level Houston Center
Fri 10:45:00 AM 26.6961 -97.0768 18° North  Level FlightAware Approximate
Fri 10:45:28 AM 26.0706 -97.2325 31° Northeast 459 528 37,000  Level Houston Center
Fri 10:46:30 AM 26.1789 -97.1575 32° Northeast 459 528 37,000  Level Houston Center
Fri 10:47:32 AM 26.2956 -97.0778 31° Northeast 459 528 37,000  Level Houston Center
Fri 10:48:34 AM 26.4031 -97.0031 32° Northeast 457 526 37,000  Level Houston Center
Fri 10:49:36 AM 26.5189 -96.9236 32° Northeast 455 524 37,000  Level Houston Center
Fri 10:50:38 AM 26.6264 -96.8489 32° Northeast 455 524 37,000  Level Houston Center
Fri 10:51:40 AM 26.7228 -96.7814 32° Northeast 457 526 37,000  Level Houston Center
Fri 10:52:42 AM 26.8511 -96.6922 32° Northeast 454 522 37,000  Level Houston Center
Fri 10:53:44 AM 26.9594 -96.6167 32° Northeast 458 527 37,000  Level Houston Center
Fri 10:54:46 AM 27.0658 -96.5406 32° Northeast 455 524 37,000  Level Houston Center
Fri 10:55:48 AM 27.1689 -96.4697 31° Northeast 453 521 37,000  Level Houston Center
Fri 10:56:50 AM 27.2764 -96.3939 32° Northeast 455 524 37,000  Level Houston Center
Fri 10:57:52 AM 27.4050 -96.3022 32° Northeast 457 526 37,000  Level Houston Center
Fri 10:58:54 AM 27.5125 -96.2272 32° Northeast 456 525 37,000  Level Houston Center
Fri 10:59:56 AM 27.6169 -96.1517 33° Northeast 450 518 37,000 -48 Level Houston Center
Fri 11:00:58 AM 27.7233 -96.0778 32° Northeast 450 518 36,900  Descending Houston Center
Fri 11:02:00 AM 27.8286 -96.0025 32° Northeast 450 518 37,000 48 Climbing Houston Center
Fri 11:03:02 AM 27.9339 -95.9272 32° Northeast 448 516 37,000  Level Houston Center
Fri 11:04:04 AM 28.0664 -95.8519 27° Northeast 447 514 37,000  Level Houston Center
Fri 11:05:06 AM 28.1881 -95.8406 North 441 507 37,000  Level Houston Center
Fri 11:06:08 AM 28.3111 -95.8289 North 447 514 37,000  Level Houston Center
Fri 11:07:10 AM 28.4222 -95.7656 27° Northeast 450 518 37,000  Level Houston Center
Fri 11:08:12 AM 28.5350 -95.7094 24° Northeast 444 511 37,000  Level Houston Center
Fri 11:09:14 AM 28.6678 -95.6322 27° Northeast 447 514 37,000  Level Houston Center
Fri 11:10:16 AM 28.7683 -95.5508 35° Northeast 444 511 37,000  Level Houston Center
Fri 11:11:18 AM 28.8708 -95.4744 33° Northeast 442 509 37,000  Level Houston Center
Fri 11:12:20 AM 28.9728 -95.3975 33° Northeast 441 507 37,000  Level Houston Center
Fri 11:13:23 AM 29.0742 -95.3214 33° Northeast 439 505 37,000  Level Houston Center
Fri 11:14:25 AM 29.1783 -95.2419 34° Northeast 446 513 37,000  Level Houston Center
Fri 11:15:27 AM 29.3011 -95.1475 34° Northeast 448 516 37,000  Level Houston Center
Fri 11:16:29 AM 29.4036 -95.0694 34° Northeast 447 514 37,000  Level Houston Center
Fri 11:17:31 AM 29.5050 -94.9911 34° Northeast 447 514 37,000  Level Houston Center
Fri 11:18:33 AM 29.6075 -94.9153 33° Northeast 445 512 37,000  Level Houston Center
Fri 11:19:35 AM 29.7275 -94.8231 34° Northeast 439 505 37,000  Level Houston Center
Fri 11:20:37 AM 29.8278 -94.7458 34° Northeast 439 505 37,000  Level Houston Center
Fri 11:21:39 AM 29.9267 -94.6703 34° Northeast 431 496 37,000  Level Houston Center
Fri 11:22:42 AM 30.0256 -94.5931 34° Northeast 432 497 37,000  Level Houston Center
Fri 11:23:44 AM 30.1258 -94.5169 33° Northeast 434 499 37,000  Level Houston Center
Fri 11:24:46 AM 30.2336 -94.4342 34° Northeast 436 502 37,000  Level Houston Center
Fri 11:25:48 AM 30.3358 -94.3558 33° Northeast 439 505 37,000  Level Houston Center
Fri 11:26:50 AM 30.4567 -94.2611 34° Northeast 438 504 37,000 -48 Level Houston Center
Fri 11:27:52 AM 30.5581 -94.1833 33° Northeast 436 502 36,900  Descending Houston Center
Fri 11:28:54 AM 30.6617 -94.1008 34° Northeast 439 505 37,000 48 Climbing Houston Center
Fri 11:29:56 AM 30.7606 -94.0239 34° Northeast 438 504 37,000  Level Houston Center
Fri 11:30:59 AM 30.8614 -93.9453 34° Northeast 435 501 37,000  Level Houston Center
Fri 11:32:01 AM 30.9628 -93.8647 34° Northeast 438 504 37,000  Level Houston Center
Fri 11:33:03 AM 31.0639 -93.7839 34° Northeast 438 504 37,000  Level Houston Center
Fri 11:34:05 AM 31.1856 -93.6864 34° Northeast 442 509 37,000  Level Houston Center
Fri 11:35:07 AM 31.2847 -93.6078 34° Northeast 441 507 37,000  Level Houston Center
Fri 11:36:09 AM 31.3922 -93.5225 34° Northeast 444 511 37,000  Level Houston Center
Fri 11:37:11 AM 31.4939 -93.4417 34° Northeast 443 510 37,000  Level Houston Center
Fri 11:38:13 AM 31.5967 -93.3592 34° Northeast 445 512 37,000  Level Houston Center
Fri 11:39:16 AM 31.6953 -93.2789 35° Northeast 444 511 37,000  Level Houston Center
Fri 11:40:18 AM 31.8211 -93.1769 35° Northeast 445 512 37,000  Level Houston Center
Fri 11:41:20 AM 31.9228 -93.0939 35° Northeast 443 510 37,000  Level Houston Center
Fri 11:42:22 AM 32.0247 -93.0117 34° Northeast 442 509 37,000  Level Houston Center
Fri 11:43:24 AM 32.1267 -92.9292 34° Northeast 444 511 37,000  Level Houston Center
Fri 11:44:26 AM 32.2283 -92.8447 35° Northeast 445 512 37,000  Level Houston Center
Fri 11:45:28 AM 32.3300 -92.7606 35° Northeast 445 512 37,000  Level Houston Center
Fri 11:46:30 AM 32.4461 -92.6672 34° Northeast 440 506 37,000  Level Houston Center
Fri 11:47:33 AM 32.5475 -92.5825 35° Northeast 445 512 37,000  Level Houston Center
Fri 11:48:35 AM 32.6531 -92.4950 35° Northeast 439 505 37,000  Level Houston Center
Fri 11:49:37 AM 32.7531 -92.4131 35° Northeast 437 503 37,000  Level Houston Center
Fri 11:50:39 AM 32.8544 -92.3300 35° Northeast 441 507 37,000  Level Houston Center
Fri 11:51:22 AM 32.9414 -92.2583 35° Northeast 434 499 37,000  Level Memphis Center
Fri 11:52:22 AM 33.0386 -92.1761 35° Northeast 445 512 37,000  Level Memphis Center
Fri 11:53:22 AM 33.1422 -92.0914 34° Northeast 445 512 37,000  Level Memphis Center
Fri 11:54:22 AM 33.2308 -92.0136 36° Northeast 440 506 37,000  Level Memphis Center
Fri 11:55:22 AM 33.3428 -91.9214 35° Northeast 446 513 37,000  Level Memphis Center
Fri 11:56:22 AM 33.4461 -91.8361 35° Northeast 446 513 37,000  Level Memphis Center
Fri 11:57:22 AM 33.5472 -91.7506 35° Northeast 446 513 37,000  Level Memphis Center
Fri 11:58:22 AM 33.6294 -91.6744 38° Northeast 441 507 37,000  Level Memphis Center
Fri 11:59:22 AM 33.7347 -91.5861 35° Northeast 434 499 37,000  Level Memphis Center
Fri 12:00:22 PM 33.8358 -91.5000 35° Northeast 434 499 37,000  Level Memphis Center
Fri 12:01:22 PM 33.9344 -91.4161 35° Northeast 439 505 37,000  Level Memphis Center
Fri 12:02:22 PM 34.0353 -91.3297 35° Northeast 442 509 37,000  Level Memphis Center
Fri 12:03:22 PM 34.1489 -91.2356 34° Northeast 442 509 37,000  Level Memphis Center
Fri 12:04:22 PM 34.2475 -91.1461 37° Northeast 442 509 37,000  Level Memphis Center
Fri 12:05:22 PM 34.3461 -91.0614 35° Northeast 437 503 37,000  Level Memphis Center
Fri 12:06:22 PM 34.4489 -90.9742 35° Northeast 437 503 37,000  Level Memphis Center
Fri 12:07:22 PM 34.5494 -90.8842 36° Northeast 437 503 37,000  Level Memphis Center
Fri 12:08:22 PM 34.6497 -90.7964 36° Northeast 437 503 37,000  Level Memphis Center
Fri 12:09:22 PM 34.7481 -90.7111 35° Northeast 437 503 37,000  Level Memphis Center
Fri 12:10:22 PM 34.8486 -90.6253 35° Northeast 437 503 37,000  Level Memphis Center
Fri 12:11:22 PM 34.9383 -90.5469 36° Northeast 437 503 37,000  Level Memphis Center
Fri 12:12:22 PM 35.0386 -90.4586 36° Northeast 437 503 37,000  Level Memphis Center
Fri 12:13:22 PM 35.1389 -90.3672 37° Northeast 437 503 37,000  Level Memphis Center
Fri 12:14:22 PM 35.2367 -90.2783 37° Northeast 437 503 37,000  Level Memphis Center
Fri 12:15:22 PM 35.3369 -90.1892 36° Northeast 437 503 37,000  Level Memphis Center
Fri 12:16:22 PM 35.4472 -90.0919 36° Northeast 437 503 37,000  Level Memphis Center
Fri 12:17:22 PM 35.5450 -89.9997 37° Northeast 437 503 37,000  Level Memphis Center
Fri 12:18:22 PM 35.6469 -89.9100 36° Northeast 437 503 37,000  Level Memphis Center
Fri 12:19:22 PM 35.7258 -89.8328 38° Northeast 426 490 37,000  Level Memphis Center
Fri 12:20:22 PM 35.8256 -89.7425 36° Northeast 426 490 37,000  Level Memphis Center
Fri 12:21:22 PM 35.9250 -89.6519 36° Northeast 432 497 37,000  Level Memphis Center
Fri 12:22:22 PM 36.0247 -89.5614 36° Northeast 432 497 37,000  Level Memphis Center
Fri 12:23:22 PM 36.1219 -89.4706 37° Northeast 432 497 37,000  Level Memphis Center
Fri 12:24:22 PM 36.2172 -89.3794 38° Northeast 432 497 37,000  Level Memphis Center
Fri 12:25:22 PM 36.3292 -89.2853 34° Northeast 444 511 37,000  Level Memphis Center
Fri 12:26:22 PM 36.4261 -89.1911 38° Northeast 452 520 37,000  Level Memphis Center
Fri 12:27:22 PM 36.5275 -89.0967 37° Northeast 459 528 37,000  Level Memphis Center
Fri 12:28:22 PM 36.6222 -89.0100 36° Northeast 442 509 37,000  Level Memphis Center
Fri 12:29:22 PM 36.7192 -88.9203 37° Northeast 435 501 37,000  Level Memphis Center
Fri 12:30:22 PM 36.8142 -88.8306 37° Northeast 430 495 37,000  Level Memphis Center
Fri 12:31:22 PM 36.9089 -88.7406 37° Northeast 430 495 37,000  Level Memphis Center
Fri 12:33:06 PM 37.0819 -88.5750 37° Northeast 429 494 37,000  Level Indianapolis Center
Fri 12:34:08 PM 37.1792 -88.4833 37° Northeast 431 496 37,000  Level Indianapolis Center
Fri 12:35:10 PM 37.2775 -88.3906 37° Northeast 433 498 37,000  Level Indianapolis Center
Fri 12:36:12 PM 37.3767 -88.2958 37° Northeast 438 504 37,000  Level Indianapolis Center
Fri 12:37:14 PM 37.4722 -88.2033 38° Northeast 432 497 37,000  Level Indianapolis Center
Fri 12:38:16 PM 37.5700 -88.1092 37° Northeast 434 499 37,000  Level Indianapolis Center
Fri 12:39:18 PM 37.6711 -88.0217 34° Northeast 435 501 37,000  Level Indianapolis Center
Fri 12:40:20 PM 37.7703 -87.9492 30° Northeast 430 495 37,000  Level Indianapolis Center
Fri 12:41:22 PM 37.8950 -87.8547 31° Northeast 432 497 37,000  Level Indianapolis Center
Fri 12:42:24 PM 37.9992 -87.7764 31° Northeast 432 497 37,000  Level Indianapolis Center
Fri 12:43:26 PM 38.1022 -87.6983 31° Northeast 429 494 37,000  Level Indianapolis Center
Fri 12:44:28 PM 38.2044 -87.6225 30° Northeast 424 488 37,000  Level Indianapolis Center
Fri 12:45:30 PM 38.3061 -87.5453 31° Northeast 422 486 37,000  Level Indianapolis Center
Fri 12:46:32 PM 38.4078 -87.4672 31° Northeast 422 486 37,000  Level Indianapolis Center
Fri 12:47:34 PM 38.5106 -87.3889 31° Northeast 424 488 37,000  Level Indianapolis Center
Fri 12:48:36 PM 38.6200 -87.3289 23° Northeast 423 487 37,000  Level Indianapolis Center
Fri 12:49:38 PM 38.7328 -87.2783 19° North 424 488 37,000  Level Indianapolis Center
Fri 12:50:40 PM 38.8683 -87.2167 20° North 426 490 37,000  Level Indianapolis Center
Fri 12:51:42 PM 38.9806 -87.1672 19° North 425 489 37,000  Level Indianapolis Center
Fri 12:52:44 PM 39.0925 -87.1150 20° North 425 489 37,000  Level Indianapolis Center
Fri 12:53:46 PM 39.2067 -87.0447 25° Northeast 427 491 37,000  Level Indianapolis Center
Fri 12:54:48 PM 39.2953 -86.9475 40° Northeast 420 483 37,000 -194 Level Indianapolis Center
Fri 12:55:50 PM 39.3828 -86.8506 41° Northeast 416 479 36,600 -435 Descending Indianapolis Center
Fri 12:56:52 PM 39.4706 -86.7522 41° Northeast 418 481 36,100 -435 Descending Indianapolis Center
Fri 12:57:54 PM 39.5589 -86.6544 40° Northeast 418 481 35,700 -435 Descending Indianapolis Center
Fri 12:58:56 PM 39.6486 -86.5542 41° Northeast 423 487 35,200 -532 Descending Indianapolis Center
Fri 12:59:58 PM 39.7572 -86.4333 41° Northeast 423 487 34,600 -677 Descending Indianapolis Center
Fri 01:01:00 PM 39.8433 -86.3375 41° Northeast 426 490 33,800 -774 Descending Indianapolis Center
Fri 01:02:02 PM 39.9481 -86.2356 37° Northeast 429 494 33,000 -387 Descending Indianapolis Center
Fri 01:03:04 PM 40.0419 -86.1408 38° Northeast 426 490 33,000  Level Indianapolis Center
Fri 01:04:06 PM 40.1367 -86.0456 38° Northeast 429 494 33,000  Level Indianapolis Center
Fri 01:04:46 PM 40.1942 -85.9886 37° Northeast 428 493 33,000 -471 Level Chicago Center
Fri 01:05:48 PM 40.2892 -85.8931 37° Northeast 429 494 32,200 -968 Descending Chicago Center
Fri 01:06:50 PM 40.4047 -85.7764 38° Northeast 434 499 31,000 -1,306 Descending Chicago Center
Fri 01:07:52 PM 40.5017 -85.6761 38° Northeast 440 506 29,500 -1,500 Descending Chicago Center
Fri 01:08:54 PM 40.6000 -85.5781 37° Northeast 443 510 27,900 -1,548 Descending Chicago Center
Fri 01:09:56 PM 40.6944 -85.4822 38° Northeast 436 502 26,300 -1,488 Descending Chicago Center
Fri 01:10:59 PM 40.7883 -85.3856 38° Northeast 430 495 24,800 -1,344 Descending Chicago Center
Fri 01:12:01 PM 40.9006 -85.2669 39° Northeast 431 496 23,500 -1,113 Descending Chicago Center
Fri 01:13:03 PM 40.9928 -85.1700 38° Northeast 430 495 22,500 -968 Descending Chicago Center
Fri 01:14:05 PM 41.0817 -85.0772 38° Northeast 420 483 21,500 -726 Descending Chicago Center
Fri 01:15:07 PM 41.1672 -84.9836 39° Northeast 407 468 21,000 -242 Descending Chicago Center
Fri 01:16:09 PM 41.2550 -84.8906 39° Northeast 406 467 21,000  Level Chicago Center
Fri 01:17:11 PM 41.3592 -84.7778 39° Northeast 406 467 21,000  Level Chicago Center
Fri 01:18:13 PM 41.4456 -84.6844 39° Northeast 405 466 21,000  Level Chicago Center
Fri 01:19:15 PM 41.5322 -84.5903 39° Northeast 404 465 21,000 -290 Level Chicago Center
Fri 01:20:17 PM 41.6186 -84.4964 39° Northeast 404 465 20,400 -1,063 Descending Chicago Center
Fri 01:20:51 PM 41.6678 -84.4417 40° Northeast 406 467 19,300 -2,809 Descending Cleveland Center
Fri 01:21:51 PM 41.7242 -84.3086 60° Northeast 395 455 16,000 -3,418 Descending Cleveland Center
Fri 01:22:10 PM 41.7450 -84.2514 64° Northeast 414 476 14,800 -2,600 Descending Cleveland Center
Fri 01:22:51 PM 41.7747 -84.1642 65° Northeast 395 455 13,400 -1,881 Descending Cleveland Center
Fri 01:23:17 PM 41.7994 -84.1069 60° Northeast 378 435 12,700 -1,400 Descending Cleveland Center
Fri 01:23:51 PM 41.8242 -84.0442 62° Northeast 384 442 12,000 -689 Descending Cleveland Center
Fri 01:24:18 PM 41.8550 -83.9928 51° Northeast 368 423 12,000  Level Cleveland Center
Fri 01:24:51 PM 41.8881 -83.9361 52° Northeast 367 422 12,000  Level Cleveland Center
Fri 01:25:19 PM 41.9228 -83.8903 44° Northeast 360 414 12,000  Level Cleveland Center
Fri 01:25:51 PM 41.9556 -83.8361 51° Northeast 362 417 12,000  Level Cleveland Center
Fri 01:26:20 PM 41.9903 -83.7906 44° Northeast 361 415 12,000  Level Cleveland Center
Fri 01:26:51 PM 42.0250 -83.7392 48° Northeast 357 411 12,000  Level Cleveland Center
Fri 01:27:21 PM 42.0617 -83.6906 45° Northeast 340 391 12,000  Level Cleveland Center
Fri 01:27:51 PM 42.0858 -83.6497 51° Northeast 344 396 12,000  Level Cleveland Center
Fri 01:28:22 PM 42.1181 -83.6067 45° Northeast 297 342 12,000  Level Cleveland Center
Fri 01:28:51 PM 42.1422 -83.5656 52° Northeast 322 371 12,000  Level Cleveland Center
Fri 01:29:23 PM 42.1806 -83.5339 31° Northeast 299 344 12,000 -200 Level Cleveland Center
Fri 01:29:51 PM 42.2000 -83.5067 46° Northeast 300 345 11,800 -900 Descending Cleveland Center
Fri 01:30:23 PM 42.2444 -83.4750 28° Northeast 240 276 11,100 -1,000 Descending Cleveland Center
Fri 01:30:51 PM 42.2594 -83.4617 33° Northeast 265 305 10,800 -1,452 Descending Cleveland Center
Fri 01:31:25 PM 42.2997 -83.4411 21° North 216 249 9,600 -2,000 Descending Cleveland Center
Fri 01:31:51 PM 42.3186 -83.4281 27° Northeast 230 265 8,800 -2,400 Descending Cleveland Center
Fri 01:32:25 PM 42.3567 -83.4100 19° North 209 241 7,200 -2,400 Descending Cleveland Center
Fri 01:33:26 PM 42.4056 -83.3728 29° Northeast 211 243 5,000 -1,547 Descending Cleveland Center
Fri 01:34:33 PM 42.3819 -83.3069 116° Southeast 185 213 3,900 -1,078 Descending Cleveland Center
Fri 01:35:34 PM 42.3342 -83.2994 173° South 161 185 2,700 -885 Descending Cleveland Center
Fri 01:36:35 PM 42.2989 -83.3033 185° South 129 148 2,100 -672 Descending Cleveland Center
Fri 01:37:48 PM 42.2564 -83.3325 207° Southwest 128 147 1,200 -740 Descending Cleveland Center

Login

Don't have an account? Register now (free) for customized features, flight alerts, and more!